Salt Lake City, Utah
Traffic Map
Current Weather Conditions
Salt Lake City, Utah
Broken Clouds
Broken Clouds
17°
Feels Like: 17°
Wind Chill: 17° Ceiling: 21000
Heat Index: 17° Visibility: 10mi
Dew Point: -7° Wind: 18mph
Humidity: 20% Direction: 170° (S)
Pressure: 29.99in Gusts: 28mph
Raw Report DataKSLC 241853Z 17016G24KT 10SM FEW110 SCT160 BKN210 17/M07 A2999 RMK AO2 SLP136 ACSL DSNT ALQDS T01671067
Traffic Incident Summary
Active as of:
Severity:
Category:
InformationThere was an issue retrieving the traffic information for this location. Please try a different location or try again shortly.
Advertisements
At Last! Intellicast now available for iPhone and Android